sensor_id;sensor_type;location;lat;lon;timestamp;P1;durP1;ratioP1;P2;durP2;ratioP2
81265;SDS011;70748;52.510;13.410;2023-09-08T00:00:56;0.08;;;0.08;;
81265;SDS011;70748;52.510;13.410;2023-09-08T00:03:22;0.10;;;0.10;;
81265;SDS011;70748;52.510;13.410;2023-09-08T00:05:48;0.05;;;0.05;;
81265;SDS011;70748;52.510;13.410;2023-09-08T00:08:14;0.10;;;0.10;;
81265;SDS011;70748;52.510;13.410;2023-09-08T00:10:40;0.03;;;0.03;;
81265;SDS011;70748;52.510;13.410;2023-09-08T00:13:06;0.10;;;0.10;;
81265;SDS011;70748;52.510;13.410;2023-09-08T00:15:35;0.10;;;0.10;;
81265;SDS011;70748;52.510;13.410;2023-09-08T00:18:01;0.10;;;0.10;;
81265;SDS011;70748;52.510;13.410;2023-09-08T00:20:27;0.10;;;0.10;;
81265;SDS011;70748;52.510;13.410;2023-09-08T00:22:52;0.10;;;0.10;;
81265;SDS011;70748;52.510;13.410;2023-09-08T00:25:18;0.10;;;0.10;;
81265;SDS011;70748;52.510;13.410;2023-09-08T00:27:44;0.10;;;0.10;;
81265;SDS011;70748;52.510;13.410;2023-09-08T00:30:09;0.10;;;0.10;;
81265;SDS011;70748;52.510;13.410;2023-09-08T00:32:36;0.05;;;0.05;;
81265;SDS011;70748;52.510;13.410;2023-09-08T00:35:01;0.10;;;0.10;;
81265;SDS011;70748;52.510;13.410;2023-09-08T00:37:27;0.10;;;0.10;;
81265;SDS011;70748;52.510;13.410;2023-09-08T00:39:53;0.10;;;0.10;;
81265;SDS011;70748;52.510;13.410;2023-09-08T00:42:18;0.10;;;0.10;;
81265;SDS011;70748;52.510;13.410;2023-09-08T00:44:44;0.00;;;0.00;;
81265;SDS011;70748;52.510;13.410;2023-09-08T00:47:10;0.05;;;0.05;;
81265;SDS011;70748;52.510;13.410;2023-09-08T00:49:36;0.10;;;0.10;;
81265;SDS011;70748;52.510;13.410;2023-09-08T00:52:02;0.10;;;0.10;;
81265;SDS011;70748;52.510;13.410;2023-09-08T00:54:28;0.10;;;0.10;;
81265;SDS011;70748;52.510;13.410;2023-09-08T00:56:55;0.10;;;0.10;;
81265;SDS011;70748;52.510;13.410;2023-09-08T00:59:25;0.00;;;0.00;;
81265;SDS011;70748;52.510;13.410;2023-09-08T01:01:51;0.10;;;0.10;;
81265;SDS011;70748;52.510;13.410;2023-09-08T01:04:17;0.10;;;0.10;;
81265;SDS011;70748;52.510;13.410;2023-09-08T01:06:43;0.03;;;0.03;;
81265;SDS011;70748;52.510;13.410;2023-09-08T01:09:10;0.10;;;0.10;;
81265;SDS011;70748;52.510;13.410;2023-09-08T01:11:36;0.03;;;0.03;;
81265;SDS011;70748;52.510;13.410;2023-09-08T01:14:02;0.10;;;0.10;;
81265;SDS011;70748;52.510;13.410;2023-09-08T01:16:28;0.00;;;0.00;;
81265;SDS011;70748;52.510;13.410;2023-09-08T01:18:53;0.10;;;0.10;;
81265;SDS011;70748;52.510;13.410;2023-09-08T01:24:11;0.00;;;0.00;;
81265;SDS011;70748;52.510;13.410;2023-09-08T01:27:00;0.00;;;0.00;;
81265;SDS011;70748;52.510;13.410;2023-09-08T01:29:26;0.10;;;0.10;;
81265;SDS011;70748;52.510;13.410;2023-09-08T01:31:54;0.10;;;0.10;;
81265;SDS011;70748;52.510;13.410;2023-09-08T01:34:21;0.20;;;0.20;;
81265;SDS011;70748;52.510;13.410;2023-09-08T01:36:47;0.10;;;0.10;;
81265;SDS011;70748;52.510;13.410;2023-09-08T01:39:13;0.10;;;0.10;;
81265;SDS011;70748;52.510;13.410;2023-09-08T01:41:38;0.10;;;0.10;;
81265;SDS011;70748;52.510;13.410;2023-09-08T01:44:04;0.10;;;0.10;;
81265;SDS011;70748;52.510;13.410;2023-09-08T01:46:33;0.10;;;0.10;;
81265;SDS011;70748;52.510;13.410;2023-09-08T01:48:59;0.10;;;0.10;;
81265;SDS011;70748;52.510;13.410;2023-09-08T01:51:25;0.10;;;0.10;;
81265;SDS011;70748;52.510;13.410;2023-09-08T01:53:50;0.10;;;0.10;;
81265;SDS011;70748;52.510;13.410;2023-09-08T01:56:16;0.10;;;0.10;;
81265;SDS011;70748;52.510;13.410;2023-09-08T01:58:42;0.17;;;0.17;;
81265;SDS011;70748;52.510;13.410;2023-09-08T02:01:07;0.20;;;0.20;;
81265;SDS011;70748;52.510;13.410;2023-09-08T02:03:33;0.10;;;0.10;;
81265;SDS011;70748;52.510;13.410;2023-09-08T02:05:58;0.10;;;0.10;;
81265;SDS011;70748;52.510;13.410;2023-09-08T02:08:24;0.10;;;0.10;;
81265;SDS011;70748;52.510;13.410;2023-09-08T02:10:50;0.10;;;0.10;;
81265;SDS011;70748;52.510;13.410;2023-09-08T02:13:16;0.10;;;0.10;;
81265;SDS011;70748;52.510;13.410;2023-09-08T02:15:41;0.10;;;0.10;;
81265;SDS011;70748;52.510;13.410;2023-09-08T02:18:07;0.10;;;0.10;;
81265;SDS011;70748;52.510;13.410;2023-09-08T02:20:33;0.10;;;0.10;;
81265;SDS011;70748;52.510;13.410;2023-09-08T02:23:03;0.00;;;0.00;;
81265;SDS011;70748;52.510;13.410;2023-09-08T02:25:30;0.10;;;0.10;;
81265;SDS011;70748;52.510;13.410;2023-09-08T02:27:55;0.10;;;0.10;;
81265;SDS011;70748;52.510;13.410;2023-09-08T02:30:21;0.03;;;0.03;;
81265;SDS011;70748;52.510;13.410;2023-09-08T02:32:47;0.10;;;0.10;;
81265;SDS011;70748;52.510;13.410;2023-09-08T02:35:12;0.10;;;0.10;;
81265;SDS011;70748;52.510;13.410;2023-09-08T02:37:38;0.10;;;0.10;;
81265;SDS011;70748;52.510;13.410;2023-09-08T02:40:04;0.10;;;0.10;;
81265;SDS011;70748;52.510;13.410;2023-09-08T02:42:31;0.10;;;0.10;;
81265;SDS011;70748;52.510;13.410;2023-09-08T02:44:57;0.10;;;0.10;;
81265;SDS011;70748;52.510;13.410;2023-09-08T02:47:22;0.10;;;0.10;;
81265;SDS011;70748;52.510;13.410;2023-09-08T02:49:48;0.05;;;0.05;;
81265;SDS011;70748;52.510;13.410;2023-09-08T02:52:14;0.10;;;0.10;;
81265;SDS011;70748;52.510;13.410;2023-09-08T02:54:40;0.10;;;0.10;;
81265;SDS011;70748;52.510;13.410;2023-09-08T02:57:05;0.10;;;0.10;;
81265;SDS011;70748;52.510;13.410;2023-09-08T02:59:31;0.00;;;0.00;;
81265;SDS011;70748;52.510;13.410;2023-09-08T03:01:57;0.10;;;0.10;;
81265;SDS011;70748;52.510;13.410;2023-09-08T03:04:24;0.10;;;0.10;;
81265;SDS011;70748;52.510;13.410;2023-09-08T03:06:50;0.10;;;0.10;;
81265;SDS011;70748;52.510;13.410;2023-09-08T03:09:16;0.00;;;0.00;;
81265;SDS011;70748;52.510;13.410;2023-09-08T03:11:41;0.10;;;0.10;;
81265;SDS011;70748;52.510;13.410;2023-09-08T03:14:07;0.10;;;0.10;;
81265;SDS011;70748;52.510;13.410;2023-09-08T03:16:33;0.10;;;0.10;;
81265;SDS011;70748;52.510;13.410;2023-09-08T03:18:58;0.10;;;0.10;;
81265;SDS011;70748;52.510;13.410;2023-09-08T03:21:24;0.10;;;0.10;;
81265;SDS011;70748;52.510;13.410;2023-09-08T03:23:50;0.10;;;0.10;;
81265;SDS011;70748;52.510;13.410;2023-09-08T03:26:15;0.10;;;0.10;;
81265;SDS011;70748;52.510;13.410;2023-09-08T03:28:41;0.10;;;0.10;;
81265;SDS011;70748;52.510;13.410;2023-09-08T03:31:08;0.10;;;0.10;;
81265;SDS011;70748;52.510;13.410;2023-09-08T03:33:33;0.10;;;0.10;;
81265;SDS011;70748;52.510;13.410;2023-09-08T03:36:00;0.10;;;0.10;;
81265;SDS011;70748;52.510;13.410;2023-09-08T03:38:26;0.10;;;0.10;;
81265;SDS011;70748;52.510;13.410;2023-09-08T03:40:51;0.10;;;0.10;;
81265;SDS011;70748;52.510;13.410;2023-09-08T03:43:17;0.08;;;0.08;;
81265;SDS011;70748;52.510;13.410;2023-09-08T03:45:44;0.10;;;0.10;;
81265;SDS011;70748;52.510;13.410;2023-09-08T03:48:10;0.10;;;0.10;;
81265;SDS011;70748;52.510;13.410;2023-09-08T03:50:35;0.05;;;0.05;;
81265;SDS011;70748;52.510;13.410;2023-09-08T03:53:01;0.10;;;0.10;;
81265;SDS011;70748;52.510;13.410;2023-09-08T03:55:27;0.10;;;0.10;;
81265;SDS011;70748;52.510;13.410;2023-09-08T03:57:53;0.03;;;0.03;;
81265;SDS011;70748;52.510;13.410;2023-09-08T04:00:19;0.10;;;0.10;;
81265;SDS011;70748;52.510;13.410;2023-09-08T04:02:47;0.10;;;0.10;;
81265;SDS011;70748;52.510;13.410;2023-09-08T04:05:13;0.10;;;0.10;;
81265;SDS011;70748;52.510;13.410;2023-09-08T04:07:39;0.00;;;0.00;;
81265;SDS011;70748;52.510;13.410;2023-09-08T04:10:05;0.17;;;0.10;;
81265;SDS011;70748;52.510;13.410;2023-09-08T04:12:32;0.10;;;0.10;;
81265;SDS011;70748;52.510;13.410;2023-09-08T04:14:57;0.00;;;0.00;;
81265;SDS011;70748;52.510;13.410;2023-09-08T04:17:23;0.10;;;0.10;;
81265;SDS011;70748;52.510;13.410;2023-09-08T04:19:49;0.10;;;0.10;;
81265;SDS011;70748;52.510;13.410;2023-09-08T04:22:14;0.10;;;0.10;;
81265;SDS011;70748;52.510;13.410;2023-09-08T04:24:40;0.10;;;0.10;;
81265;SDS011;70748;52.510;13.410;2023-09-08T04:27:06;0.10;;;0.10;;
81265;SDS011;70748;52.510;13.410;2023-09-08T04:29:33;0.10;;;0.10;;
81265;SDS011;70748;52.510;13.410;2023-09-08T04:31:59;0.10;;;0.10;;
81265;SDS011;70748;52.510;13.410;2023-09-08T04:34:25;0.10;;;0.10;;
81265;SDS011;70748;52.510;13.410;2023-09-08T04:36:50;0.10;;;0.10;;
81265;SDS011;70748;52.510;13.410;2023-09-08T04:39:16;0.10;;;0.10;;
81265;SDS011;70748;52.510;13.410;2023-09-08T04:41:42;1.35;;;0.10;;
81265;SDS011;70748;52.510;13.410;2023-09-08T04:44:07;0.10;;;0.10;;
81265;SDS011;70748;52.510;13.410;2023-09-08T04:46:33;0.10;;;0.10;;
81265;SDS011;70748;52.510;13.410;2023-09-08T04:49:00;0.10;;;0.10;;
81265;SDS011;70748;52.510;13.410;2023-09-08T04:51:25;0.10;;;0.10;;
81265;SDS011;70748;52.510;13.410;2023-09-08T04:53:51;0.10;;;0.10;;
81265;SDS011;70748;52.510;13.410;2023-09-08T04:56:17;0.10;;;0.10;;
81265;SDS011;70748;52.510;13.410;2023-09-08T04:58:42;0.10;;;0.10;;
81265;SDS011;70748;52.510;13.410;2023-09-08T05:01:08;0.10;;;0.10;;
81265;SDS011;70748;52.510;13.410;2023-09-08T05:03:34;0.00;;;0.00;;
81265;SDS011;70748;52.510;13.410;2023-09-08T05:05:59;0.10;;;0.10;;
81265;SDS011;70748;52.510;13.410;2023-09-08T05:08:26;0.10;;;0.10;;
81265;SDS011;70748;52.510;13.410;2023-09-08T05:10:52;0.10;;;0.10;;
81265;SDS011;70748;52.510;13.410;2023-09-08T05:13:17;0.10;;;0.10;;
81265;SDS011;70748;52.510;13.410;2023-09-08T05:15:43;0.10;;;0.10;;
81265;SDS011;70748;52.510;13.410;2023-09-08T05:18:13;0.10;;;0.10;;
81265;SDS011;70748;52.510;13.410;2023-09-08T05:20:39;0.00;;;0.00;;
81265;SDS011;70748;52.510;13.410;2023-09-08T05:23:04;0.10;;;0.10;;
81265;SDS011;70748;52.510;13.410;2023-09-08T05:25:30;0.10;;;0.10;;
81265;SDS011;70748;52.510;13.410;2023-09-08T05:27:56;0.10;;;0.10;;
81265;SDS011;70748;52.510;13.410;2023-09-08T05:30:22;0.10;;;0.10;;
81265;SDS011;70748;52.510;13.410;2023-09-08T05:32:47;0.10;;;0.10;;
81265;SDS011;70748;52.510;13.410;2023-09-08T05:35:13;0.10;;;0.10;;
81265;SDS011;70748;52.510;13.410;2023-09-08T05:37:39;0.10;;;0.10;;
81265;SDS011;70748;52.510;13.410;2023-09-08T05:40:05;0.20;;;0.10;;
81265;SDS011;70748;52.510;13.410;2023-09-08T05:42:31;0.10;;;0.10;;
81265;SDS011;70748;52.510;13.410;2023-09-08T05:44:57;0.10;;;0.10;;
81265;SDS011;70748;52.510;13.410;2023-09-08T05:47:25;0.00;;;0.00;;
81265;SDS011;70748;52.510;13.410;2023-09-08T05:49:51;0.13;;;0.13;;
81265;SDS011;70748;52.510;13.410;2023-09-08T05:52:17;0.10;;;0.10;;
81265;SDS011;70748;52.510;13.410;2023-09-08T05:54:42;0.05;;;0.05;;
81265;SDS011;70748;52.510;13.410;2023-09-08T05:57:08;0.10;;;0.10;;
81265;SDS011;70748;52.510;13.410;2023-09-08T05:59:34;0.10;;;0.10;;
81265;SDS011;70748;52.510;13.410;2023-09-08T06:01:59;0.10;;;0.10;;
81265;SDS011;70748;52.510;13.410;2023-09-08T06:04:25;0.15;;;0.10;;
81265;SDS011;70748;52.510;13.410;2023-09-08T06:06:50;0.10;;;0.10;;
81265;SDS011;70748;52.510;13.410;2023-09-08T06:09:16;0.05;;;0.05;;
81265;SDS011;70748;52.510;13.410;2023-09-08T06:11:42;0.10;;;0.10;;
81265;SDS011;70748;52.510;13.410;2023-09-08T06:14:07;0.10;;;0.10;;
81265;SDS011;70748;52.510;13.410;2023-09-08T06:16:33;0.10;;;0.10;;
81265;SDS011;70748;52.510;13.410;2023-09-08T06:19:00;0.10;;;0.10;;
81265;SDS011;70748;52.510;13.410;2023-09-08T06:21:28;0.10;;;0.10;;
81265;SDS011;70748;52.510;13.410;2023-09-08T06:23:53;0.08;;;0.08;;
81265;SDS011;70748;52.510;13.410;2023-09-08T06:26:19;0.10;;;0.10;;
81265;SDS011;70748;52.510;13.410;2023-09-08T06:28:45;0.10;;;0.10;;
81265;SDS011;70748;52.510;13.410;2023-09-08T06:31:10;0.10;;;0.10;;
81265;SDS011;70748;52.510;13.410;2023-09-08T06:33:36;0.10;;;0.10;;
81265;SDS011;70748;52.510;13.410;2023-09-08T06:36:02;0.90;;;0.10;;
81265;SDS011;70748;52.510;13.410;2023-09-08T06:38:27;0.10;;;0.10;;
81265;SDS011;70748;52.510;13.410;2023-09-08T06:40:56;0.13;;;0.13;;
81265;SDS011;70748;52.510;13.410;2023-09-08T06:43:22;0.10;;;0.10;;
81265;SDS011;70748;52.510;13.410;2023-09-08T06:45:50;0.10;;;0.10;;
81265;SDS011;70748;52.510;13.410;2023-09-08T06:50:42;0.10;;;0.10;;
81265;SDS011;70748;52.510;13.410;2023-09-08T06:53:07;0.10;;;0.10;;
81265;SDS011;70748;52.510;13.410;2023-09-08T06:55:33;0.10;;;0.10;;
81265;SDS011;70748;52.510;13.410;2023-09-08T06:57:59;0.10;;;0.10;;
81265;SDS011;70748;52.510;13.410;2023-09-08T07:00:25;0.10;;;0.10;;
81265;SDS011;70748;52.510;13.410;2023-09-08T07:02:50;0.10;;;0.10;;
81265;SDS011;70748;52.510;13.410;2023-09-08T07:05:16;0.10;;;0.10;;
81265;SDS011;70748;52.510;13.410;2023-09-08T07:07:42;0.20;;;0.20;;
81265;SDS011;70748;52.510;13.410;2023-09-08T07:10:08;0.10;;;0.10;;
81265;SDS011;70748;52.510;13.410;2023-09-08T07:12:34;0.20;;;0.20;;
81265;SDS011;70748;52.510;13.410;2023-09-08T07:15:00;0.20;;;0.20;;
81265;SDS011;70748;52.510;13.410;2023-09-08T07:17:25;0.30;;;0.30;;
81265;SDS011;70748;52.510;13.410;2023-09-08T07:19:51;0.20;;;0.20;;
81265;SDS011;70748;52.510;13.410;2023-09-08T07:22:17;0.30;;;0.30;;
81265;SDS011;70748;52.510;13.410;2023-09-08T07:24:44;0.30;;;0.30;;
81265;SDS011;70748;52.510;13.410;2023-09-08T07:27:10;0.30;;;0.30;;
81265;SDS011;70748;52.510;13.410;2023-09-08T07:29:39;0.30;;;0.30;;
81265;SDS011;70748;52.510;13.410;2023-09-08T07:32:05;0.30;;;0.30;;
81265;SDS011;70748;52.510;13.410;2023-09-08T07:34:31;0.30;;;0.30;;
81265;SDS011;70748;52.510;13.410;2023-09-08T07:36:57;0.40;;;0.40;;
81265;SDS011;70748;52.510;13.410;2023-09-08T07:39:22;0.40;;;0.40;;
81265;SDS011;70748;52.510;13.410;2023-09-08T07:41:48;0.30;;;0.30;;
81265;SDS011;70748;52.510;13.410;2023-09-08T07:44:14;0.30;;;0.30;;
81265;SDS011;70748;52.510;13.410;2023-09-08T07:46:40;0.20;;;0.20;;
81265;SDS011;70748;52.510;13.410;2023-09-08T07:49:05;0.30;;;0.30;;
81265;SDS011;70748;52.510;13.410;2023-09-08T07:51:31;0.22;;;0.22;;
81265;SDS011;70748;52.510;13.410;2023-09-08T07:53:57;0.30;;;0.30;;
81265;SDS011;70748;52.510;13.410;2023-09-08T07:56:23;0.20;;;0.20;;
81265;SDS011;70748;52.510;13.410;2023-09-08T07:58:48;0.20;;;0.20;;
81265;SDS011;70748;52.510;13.410;2023-09-08T08:01:14;0.30;;;0.30;;
81265;SDS011;70748;52.510;13.410;2023-09-08T08:03:40;0.20;;;0.20;;
81265;SDS011;70748;52.510;13.410;2023-09-08T08:06:06;0.20;;;0.20;;
81265;SDS011;70748;52.510;13.410;2023-09-08T08:08:33;0.20;;;0.20;;
81265;SDS011;70748;52.510;13.410;2023-09-08T08:11:07;0.20;;;0.20;;
81265;SDS011;70748;52.510;13.410;2023-09-08T08:13:45;0.10;;;0.10;;
81265;SDS011;70748;52.510;13.410;2023-09-08T08:16:11;0.13;;;0.13;;
81265;SDS011;70748;52.510;13.410;2023-09-08T08:18:37;0.20;;;0.20;;
81265;SDS011;70748;52.510;13.410;2023-09-08T08:21:05;0.17;;;0.17;;
81265;SDS011;70748;52.510;13.410;2023-09-08T08:23:31;0.10;;;0.10;;
81265;SDS011;70748;52.510;13.410;2023-09-08T08:25:57;0.20;;;0.20;;
81265;SDS011;70748;52.510;13.410;2023-09-08T08:28:23;0.20;;;0.20;;
81265;SDS011;70748;52.510;13.410;2023-09-08T08:30:52;0.20;;;0.20;;
81265;SDS011;70748;52.510;13.410;2023-09-08T08:33:18;0.20;;;0.20;;
81265;SDS011;70748;52.510;13.410;2023-09-08T08:35:52;0.30;;;0.30;;
81265;SDS011;70748;52.510;13.410;2023-09-08T08:38:18;0.30;;;0.30;;
81265;SDS011;70748;52.510;13.410;2023-09-08T08:40:44;0.30;;;0.30;;
81265;SDS011;70748;52.510;13.410;2023-09-08T08:43:10;0.47;;;0.47;;
81265;SDS011;70748;52.510;13.410;2023-09-08T08:45:37;0.20;;;0.20;;
81265;SDS011;70748;52.510;13.410;2023-09-08T08:48:04;0.60;;;0.60;;
81265;SDS011;70748;52.510;13.410;2023-09-08T08:50:31;0.52;;;0.52;;
81265;SDS011;70748;52.510;13.410;2023-09-08T08:52:58;0.65;;;0.65;;
81265;SDS011;70748;52.510;13.410;2023-09-08T08:55:26;0.60;;;0.60;;
81265;SDS011;70748;52.510;13.410;2023-09-08T08:57:55;0.50;;;0.50;;
81265;SDS011;70748;52.510;13.410;2023-09-08T09:00:27;0.55;;;0.55;;
81265;SDS011;70748;52.510;13.410;2023-09-08T09:02:54;0.70;;;0.70;;
81265;SDS011;70748;52.510;13.410;2023-09-08T09:07:46;0.73;;;0.73;;
81265;SDS011;70748;52.510;13.410;2023-09-08T09:10:13;0.90;;;0.90;;
81265;SDS011;70748;52.510;13.410;2023-09-08T09:12:39;0.63;;;0.63;;
81265;SDS011;70748;52.510;13.410;2023-09-08T09:15:05;0.80;;;0.80;;
81265;SDS011;70748;52.510;13.410;2023-09-08T09:17:33;0.70;;;0.70;;
81265;SDS011;70748;52.510;13.410;2023-09-08T09:20:12;0.80;;;0.80;;
81265;SDS011;70748;52.510;13.410;2023-09-08T09:22:39;0.70;;;0.70;;
81265;SDS011;70748;52.510;13.410;2023-09-08T09:25:04;0.83;;;0.83;;
81265;SDS011;70748;52.510;13.410;2023-09-08T09:27:32;0.70;;;0.70;;
81265;SDS011;70748;52.510;13.410;2023-09-08T09:30:02;0.73;;;0.73;;
81265;SDS011;70748;52.510;13.410;2023-09-08T09:32:28;0.70;;;0.70;;
81265;SDS011;70748;52.510;13.410;2023-09-08T09:34:56;0.90;;;0.90;;
81265;SDS011;70748;52.510;13.410;2023-09-08T09:37:25;0.77;;;0.77;;
81265;SDS011;70748;52.510;13.410;2023-09-08T09:39:51;0.80;;;0.80;;
81265;SDS011;70748;52.510;13.410;2023-09-08T09:42:18;1.00;;;1.00;;
81265;SDS011;70748;52.510;13.410;2023-09-08T09:47:12;0.70;;;0.70;;
81265;SDS011;70748;52.510;13.410;2023-09-08T09:49:42;0.80;;;0.80;;
81265;SDS011;70748;52.510;13.410;2023-09-08T09:52:10;0.50;;;0.50;;
81265;SDS011;70748;52.510;13.410;2023-09-08T09:54:38;0.50;;;0.50;;
81265;SDS011;70748;52.510;13.410;2023-09-08T09:57:09;0.40;;;0.40;;
81265;SDS011;70748;52.510;13.410;2023-09-08T09:59:38;0.40;;;0.40;;
81265;SDS011;70748;52.510;13.410;2023-09-08T10:02:08;0.30;;;0.30;;
81265;SDS011;70748;52.510;13.410;2023-09-08T10:04:38;0.30;;;0.30;;
81265;SDS011;70748;52.510;13.410;2023-09-08T10:07:06;0.30;;;0.30;;
81265;SDS011;70748;52.510;13.410;2023-09-08T10:09:32;0.20;;;0.20;;
81265;SDS011;70748;52.510;13.410;2023-09-08T10:11:59;0.30;;;0.30;;
81265;SDS011;70748;52.510;13.410;2023-09-08T10:14:40;0.30;;;0.30;;
81265;SDS011;70748;52.510;13.410;2023-09-08T10:17:18;0.30;;;0.30;;
81265;SDS011;70748;52.510;13.410;2023-09-08T10:19:47;0.20;;;0.20;;
81265;SDS011;70748;52.510;13.410;2023-09-08T10:22:18;0.30;;;0.30;;
81265;SDS011;70748;52.510;13.410;2023-09-08T10:24:46;0.30;;;0.30;;
81265;SDS011;70748;52.510;13.410;2023-09-08T10:29:39;0.30;;;0.30;;
81265;SDS011;70748;52.510;13.410;2023-09-08T10:32:05;0.20;;;0.20;;
81265;SDS011;70748;52.510;13.410;2023-09-08T10:34:33;0.28;;;0.28;;
81265;SDS011;70748;52.510;13.410;2023-09-08T10:37:01;0.22;;;0.22;;
81265;SDS011;70748;52.510;13.410;2023-09-08T10:39:37;0.20;;;0.20;;
81265;SDS011;70748;52.510;13.410;2023-09-08T10:47:13;0.20;;;0.20;;
81265;SDS011;70748;52.510;13.410;2023-09-08T10:49:40;0.20;;;0.20;;
81265;SDS011;70748;52.510;13.410;2023-09-08T10:52:09;0.20;;;0.20;;
81265;SDS011;70748;52.510;13.410;2023-09-08T10:54:48;0.10;;;0.10;;
81265;SDS011;70748;52.510;13.410;2023-09-08T10:57:15;0.20;;;0.20;;
81265;SDS011;70748;52.510;13.410;2023-09-08T10:59:52;0.20;;;0.20;;
81265;SDS011;70748;52.510;13.410;2023-09-08T11:02:38;0.20;;;0.20;;
81265;SDS011;70748;52.510;13.410;2023-09-08T11:05:06;0.10;;;0.10;;
81265;SDS011;70748;52.510;13.410;2023-09-08T11:07:35;0.20;;;0.20;;
81265;SDS011;70748;52.510;13.410;2023-09-08T11:10:04;0.20;;;0.20;;
81265;SDS011;70748;52.510;13.410;2023-09-08T11:12:31;0.20;;;0.20;;
81265;SDS011;70748;52.510;13.410;2023-09-08T11:14:57;0.30;;;0.30;;
81265;SDS011;70748;52.510;13.410;2023-09-08T11:17:29;0.30;;;0.30;;
81265;SDS011;70748;52.510;13.410;2023-09-08T11:19:55;0.20;;;0.20;;
81265;SDS011;70748;52.510;13.410;2023-09-08T11:22:22;0.30;;;0.30;;
81265;SDS011;70748;52.510;13.410;2023-09-08T11:24:49;0.20;;;0.20;;
81265;SDS011;70748;52.510;13.410;2023-09-08T11:27:16;0.40;;;0.40;;
81265;SDS011;70748;52.510;13.410;2023-09-08T11:29:43;0.40;;;0.40;;
81265;SDS011;70748;52.510;13.410;2023-09-08T11:32:09;0.40;;;0.40;;
81265;SDS011;70748;52.510;13.410;2023-09-08T11:34:35;0.40;;;0.40;;
81265;SDS011;70748;52.510;13.410;2023-09-08T11:37:10;0.40;;;0.40;;
81265;SDS011;70748;52.510;13.410;2023-09-08T11:39:41;0.40;;;0.40;;
81265;SDS011;70748;52.510;13.410;2023-09-08T11:42:08;0.43;;;0.43;;
81265;SDS011;70748;52.510;13.410;2023-09-08T11:47:01;0.33;;;0.33;;
81265;SDS011;70748;52.510;13.410;2023-09-08T11:49:35;0.50;;;0.50;;
81265;SDS011;70748;52.510;13.410;2023-09-08T11:52:04;0.50;;;0.50;;
81265;SDS011;70748;52.510;13.410;2023-09-08T11:54:34;0.60;;;0.60;;
81265;SDS011;70748;52.510;13.410;2023-09-08T11:57:01;0.63;;;0.63;;
81265;SDS011;70748;52.510;13.410;2023-09-08T11:59:31;0.47;;;0.47;;
81265;SDS011;70748;52.510;13.410;2023-09-08T12:01:58;0.50;;;0.50;;
81265;SDS011;70748;52.510;13.410;2023-09-08T12:04:24;0.70;;;0.70;;
81265;SDS011;70748;52.510;13.410;2023-09-08T12:06:54;0.60;;;0.60;;
81265;SDS011;70748;52.510;13.410;2023-09-08T12:09:23;0.50;;;0.50;;
81265;SDS011;70748;52.510;13.410;2023-09-08T12:11:49;0.60;;;0.60;;
81265;SDS011;70748;52.510;13.410;2023-09-08T12:14:15;0.70;;;0.70;;
81265;SDS011;70748;52.510;13.410;2023-09-08T12:16:41;0.52;;;0.52;;
81265;SDS011;70748;52.510;13.410;2023-09-08T12:19:07;0.50;;;0.50;;
81265;SDS011;70748;52.510;13.410;2023-09-08T12:21:53;0.60;;;0.60;;
81265;SDS011;70748;52.510;13.410;2023-09-08T12:27:26;0.70;;;0.70;;
81265;SDS011;70748;52.510;13.410;2023-09-08T12:29:55;0.70;;;0.70;;
81265;SDS011;70748;52.510;13.410;2023-09-08T12:32:23;0.75;;;0.75;;
81265;SDS011;70748;52.510;13.410;2023-09-08T12:34:50;0.60;;;0.60;;
81265;SDS011;70748;52.510;13.410;2023-09-08T12:37:23;0.60;;;0.60;;
81265;SDS011;70748;52.510;13.410;2023-09-08T12:39:52;0.60;;;0.60;;
81265;SDS011;70748;52.510;13.410;2023-09-08T12:42:18;0.70;;;0.70;;
81265;SDS011;70748;52.510;13.410;2023-09-08T12:44:45;0.63;;;0.63;;
81265;SDS011;70748;52.510;13.410;2023-09-08T12:49:40;0.60;;;0.60;;
81265;SDS011;70748;52.510;13.410;2023-09-08T12:52:09;0.60;;;0.60;;
81265;SDS011;70748;52.510;13.410;2023-09-08T12:54:35;0.60;;;0.60;;
81265;SDS011;70748;52.510;13.410;2023-09-08T12:57:01;0.47;;;0.47;;
81265;SDS011;70748;52.510;13.410;2023-09-08T12:59:27;0.60;;;0.60;;
81265;SDS011;70748;52.510;13.410;2023-09-08T13:01:56;0.63;;;0.63;;
81265;SDS011;70748;52.510;13.410;2023-09-08T13:04:29;0.70;;;0.70;;
81265;SDS011;70748;52.510;13.410;2023-09-08T13:06:54;0.57;;;0.57;;
81265;SDS011;70748;52.510;13.410;2023-09-08T13:09:25;0.60;;;0.60;;
81265;SDS011;70748;52.510;13.410;2023-09-08T13:11:50;0.68;;;0.68;;
81265;SDS011;70748;52.510;13.410;2023-09-08T13:14:16;0.60;;;0.60;;
81265;SDS011;70748;52.510;13.410;2023-09-08T13:16:42;0.60;;;0.60;;
81265;SDS011;70748;52.510;13.410;2023-09-08T13:19:08;0.60;;;0.60;;
81265;SDS011;70748;52.510;13.410;2023-09-08T13:21:33;0.63;;;0.63;;
81265;SDS011;70748;52.510;13.410;2023-09-08T13:23:59;0.50;;;0.50;;
81265;SDS011;70748;52.510;13.410;2023-09-08T13:26:24;0.60;;;0.60;;
81265;SDS011;70748;52.510;13.410;2023-09-08T13:28:50;0.50;;;0.50;;
81265;SDS011;70748;52.510;13.410;2023-09-08T13:33:43;0.40;;;0.40;;
81265;SDS011;70748;52.510;13.410;2023-09-08T13:36:08;0.40;;;0.40;;
81265;SDS011;70748;52.510;13.410;2023-09-08T13:38:34;0.40;;;0.40;;
81265;SDS011;70748;52.510;13.410;2023-09-08T13:41:00;0.38;;;0.38;;
81265;SDS011;70748;52.510;13.410;2023-09-08T13:43:26;0.40;;;0.40;;
81265;SDS011;70748;52.510;13.410;2023-09-08T13:45:52;0.30;;;0.30;;
81265;SDS011;70748;52.510;13.410;2023-09-08T13:48:18;0.20;;;0.20;;
81265;SDS011;70748;52.510;13.410;2023-09-08T13:50:44;0.25;;;0.25;;
81265;SDS011;70748;52.510;13.410;2023-09-08T13:53:09;0.20;;;0.20;;
81265;SDS011;70748;52.510;13.410;2023-09-08T13:55:35;0.30;;;0.30;;
81265;SDS011;70748;52.510;13.410;2023-09-08T13:58:01;0.20;;;0.20;;
81265;SDS011;70748;52.510;13.410;2023-09-08T14:00:26;0.20;;;0.20;;
81265;SDS011;70748;52.510;13.410;2023-09-08T14:02:52;0.20;;;0.20;;
81265;SDS011;70748;52.510;13.410;2023-09-08T14:05:17;0.15;;;0.15;;
81265;SDS011;70748;52.510;13.410;2023-09-08T14:07:44;0.20;;;0.20;;
81265;SDS011;70748;52.510;13.410;2023-09-08T14:10:09;0.30;;;0.30;;
81265;SDS011;70748;52.510;13.410;2023-09-08T14:12:35;0.20;;;0.20;;
81265;SDS011;70748;52.510;13.410;2023-09-08T14:15:01;0.20;;;0.20;;
81265;SDS011;70748;52.510;13.410;2023-09-08T14:17:28;0.20;;;0.20;;
81265;SDS011;70748;52.510;13.410;2023-09-08T14:19:53;0.30;;;0.30;;
81265;SDS011;70748;52.510;13.410;2023-09-08T14:22:19;0.10;;;0.10;;
81265;SDS011;70748;52.510;13.410;2023-09-08T14:24:44;0.10;;;0.10;;
81265;SDS011;70748;52.510;13.410;2023-09-08T14:27:10;0.20;;;0.20;;
81265;SDS011;70748;52.510;13.410;2023-09-08T14:29:36;0.20;;;0.20;;
81265;SDS011;70748;52.510;13.410;2023-09-08T14:32:01;0.20;;;0.20;;
81265;SDS011;70748;52.510;13.410;2023-09-08T14:34:27;0.20;;;0.20;;
81265;SDS011;70748;52.510;13.410;2023-09-08T14:36:53;0.20;;;0.20;;
81265;SDS011;70748;52.510;13.410;2023-09-08T14:39:18;0.20;;;0.20;;
81265;SDS011;70748;52.510;13.410;2023-09-08T14:41:45;0.20;;;0.20;;
81265;SDS011;70748;52.510;13.410;2023-09-08T14:44:11;0.20;;;0.20;;
81265;SDS011;70748;52.510;13.410;2023-09-08T14:46:37;0.10;;;0.10;;
81265;SDS011;70748;52.510;13.410;2023-09-08T14:49:02;0.17;;;0.17;;
81265;SDS011;70748;52.510;13.410;2023-09-08T14:51:28;0.20;;;0.20;;
81265;SDS011;70748;52.510;13.410;2023-09-08T14:53:54;0.20;;;0.20;;
81265;SDS011;70748;52.510;13.410;2023-09-08T14:56:20;0.13;;;0.13;;
81265;SDS011;70748;52.510;13.410;2023-09-08T14:58:45;0.13;;;0.13;;